Weather at Gettysburg Regional Airport

Public forecast

Using degrees Fahrenheit for public forecast. Weather courtesy of forecast.io.

Closest aviation weather report (METAR) to Gettysburg Regional Airport

Report is more than 6 hours old.

Closest report is The Gettysburg Hospital Heliport, 2.0 nm (3.8 km) ESE. Retrieved 2012/09/11 21:47 UTC (8 years ago):

PA11 112147Z 11012G18KT 10SM FEW013 BKN022 OVC033 09/08 A2961

Closest aviation forecast (TAF) to Gettysburg Regional Airport

Closest forecast is Harrisburg International Airport, 31.6 nm (58.6 km) NE. Retrieved 2020/09/25 06:39 UTC (4 hours ago):

TAF KMDT 250536Z 2506/2606 VRB03KT P6SM SCT100 BKN250 TEMPO 2510/2512 5SM BR FM251300 16007KT P6SM SCT250